sensor_id;sensor_type;location;lat;lon;timestamp;P1;durP1;ratioP1;P2;durP2;ratioP2
15218;SDS011;15623;53.986;11.676;2023-04-24T00:16:04;5.63;;;5.13;;
15218;SDS011;15623;53.986;11.676;2023-04-24T00:18:46;5.67;;;5.20;;
15218;SDS011;15623;53.986;11.676;2023-04-24T00:23:47;6.10;;;5.27;;
15218;SDS011;15623;53.986;11.676;2023-04-24T00:26:21;5.40;;;5.10;;
15218;SDS011;15623;53.986;11.676;2023-04-24T00:28:51;5.63;;;5.33;;
15218;SDS011;15623;53.986;11.676;2023-04-24T00:31:36;5.93;;;5.53;;
15218;SDS011;15623;53.986;11.676;2023-04-24T00:34:09;5.70;;;5.30;;
15218;SDS011;15623;53.986;11.676;2023-04-24T00:36:43;5.70;;;5.30;;
15218;SDS011;15623;53.986;11.676;2023-04-24T00:41:47;5.67;;;5.27;;
15218;SDS011;15623;53.986;11.676;2023-04-24T00:44:17;5.10;;;4.80;;
15218;SDS011;15623;53.986;11.676;2023-04-24T00:46:50;5.60;;;5.00;;
15218;SDS011;15623;53.986;11.676;2023-04-24T00:49:22;5.47;;;5.07;;
15218;SDS011;15623;53.986;11.676;2023-04-24T00:54:42;5.27;;;4.97;;
15218;SDS011;15623;53.986;11.676;2023-04-24T00:57:11;5.03;;;4.63;;
15218;SDS011;15623;53.986;11.676;2023-04-24T00:59:41;4.73;;;4.33;;
15218;SDS011;15623;53.986;11.676;2023-04-24T01:04:43;4.83;;;4.53;;
15218;SDS011;15623;53.986;11.676;2023-04-24T01:07:12;4.80;;;4.40;;
15218;SDS011;15623;53.986;11.676;2023-04-24T01:09:41;5.07;;;4.63;;
15218;SDS011;15623;53.986;11.676;2023-04-24T01:12:08;5.23;;;4.37;;
15218;SDS011;15623;53.986;11.676;2023-04-24T01:14:36;5.13;;;4.83;;
15218;SDS011;15623;53.986;11.676;2023-04-24T01:17:04;4.70;;;4.40;;
15218;SDS011;15623;53.986;11.676;2023-04-24T01:19:42;5.37;;;4.97;;
15218;SDS011;15623;53.986;11.676;2023-04-24T01:22:12;4.70;;;4.40;;
15218;SDS011;15623;53.986;11.676;2023-04-24T01:27:39;5.20;;;4.57;;
15218;SDS011;15623;53.986;11.676;2023-04-24T01:30:14;4.60;;;4.30;;
15218;SDS011;15623;53.986;11.676;2023-04-24T01:35:40;4.40;;;4.13;;
15218;SDS011;15623;53.986;11.676;2023-04-24T01:38:19;4.50;;;4.20;;
15218;SDS011;15623;53.986;11.676;2023-04-24T01:40:53;5.07;;;4.67;;
15218;SDS011;15623;53.986;11.676;2023-04-24T01:55:02;5.20;;;4.70;;
15218;SDS011;15623;53.986;11.676;2023-04-24T01:57:32;5.13;;;4.83;;
15218;SDS011;15623;53.986;11.676;2023-04-24T02:00:02;4.70;;;4.30;;
15218;SDS011;15623;53.986;11.676;2023-04-24T02:02:33;4.37;;;4.07;;
15218;SDS011;15623;53.986;11.676;2023-04-24T02:05:01;5.10;;;4.77;;
15218;SDS011;15623;53.986;11.676;2023-04-24T02:07:36;4.50;;;4.23;;
15218;SDS011;15623;53.986;11.676;2023-04-24T02:12:38;4.93;;;4.50;;
15218;SDS011;15623;53.986;11.676;2023-04-24T02:15:12;4.10;;;3.90;;
15218;SDS011;15623;53.986;11.676;2023-04-24T02:17:44;4.90;;;4.50;;
15218;SDS011;15623;53.986;11.676;2023-04-24T02:40:08;5.30;;;4.90;;
15218;SDS011;15623;53.986;11.676;2023-04-24T02:42:48;5.40;;;5.07;;
15218;SDS011;15623;53.986;11.676;2023-04-24T02:45:25;5.33;;;5.03;;
15218;SDS011;15623;53.986;11.676;2023-04-24T02:53:31;5.20;;;4.80;;
15218;SDS011;15623;53.986;11.676;2023-04-24T02:56:06;5.07;;;4.63;;
15218;SDS011;15623;53.986;11.676;2023-04-24T03:20:49;5.67;;;5.27;;
15218;SDS011;15623;53.986;11.676;2023-04-24T03:23:30;5.33;;;4.93;;
15218;SDS011;15623;53.986;11.676;2023-04-24T03:26:03;6.00;;;5.47;;
15218;SDS011;15623;53.986;11.676;2023-04-24T03:28:38;5.90;;;5.40;;
15218;SDS011;15623;53.986;11.676;2023-04-24T03:31:21;5.97;;;5.47;;
15218;SDS011;15623;53.986;11.676;2023-04-24T03:39:29;6.13;;;5.70;;
15218;SDS011;15623;53.986;11.676;2023-04-24T03:42:12;6.20;;;5.70;;
15218;SDS011;15623;53.986;11.676;2023-04-24T03:47:29;5.73;;;5.33;;
15218;SDS011;15623;53.986;11.676;2023-04-24T03:50:00;6.43;;;5.93;;
15218;SDS011;15623;53.986;11.676;2023-04-24T03:52:32;6.47;;;5.97;;
15218;SDS011;15623;53.986;11.676;2023-04-24T03:55:01;6.93;;;6.40;;
15218;SDS011;15623;53.986;11.676;2023-04-24T03:57:29;7.40;;;6.70;;
15218;SDS011;15623;53.986;11.676;2023-04-24T03:59:57;6.60;;;6.20;;
15218;SDS011;15623;53.986;11.676;2023-04-24T04:02:26;7.23;;;6.73;;
15218;SDS011;15623;53.986;11.676;2023-04-24T04:20:41;7.50;;;6.90;;
15218;SDS011;15623;53.986;11.676;2023-04-24T04:23:30;8.87;;;8.20;;
15218;SDS011;15623;53.986;11.676;2023-04-24T04:28:47;6.80;;;6.40;;
15218;SDS011;15623;53.986;11.676;2023-04-24T04:42:42;6.83;;;6.33;;
15218;SDS011;15623;53.986;11.676;2023-04-24T04:45:14;6.20;;;5.70;;
15218;SDS011;15623;53.986;11.676;2023-04-24T04:47:58;6.43;;;6.00;;
15218;SDS011;15623;53.986;11.676;2023-04-24T04:56:33;6.73;;;6.23;;
15218;SDS011;15623;53.986;11.676;2023-04-24T05:01:45;6.67;;;6.07;;
15218;SDS011;15623;53.986;11.676;2023-04-24T05:04:13;6.30;;;5.90;;
15218;SDS011;15623;53.986;11.676;2023-04-24T05:06:46;6.57;;;5.97;;
15218;SDS011;15623;53.986;11.676;2023-04-24T05:12:16;6.37;;;5.73;;
15218;SDS011;15623;53.986;11.676;2023-04-24T05:14:49;5.50;;;5.00;;
15218;SDS011;15623;53.986;11.676;2023-04-24T05:17:18;5.17;;;4.80;;
15218;SDS011;15623;53.986;11.676;2023-04-24T05:19:46;5.33;;;4.83;;
15218;SDS011;15623;53.986;11.676;2023-04-24T05:22:19;4.90;;;4.60;;
15218;SDS011;15623;53.986;11.676;2023-04-24T05:24:49;5.00;;;4.60;;
15218;SDS011;15623;53.986;11.676;2023-04-24T05:27:18;5.07;;;4.67;;
15218;SDS011;15623;53.986;11.676;2023-04-24T05:29:46;5.32;;;4.95;;
15218;SDS011;15623;53.986;11.676;2023-04-24T05:32:21;5.88;;;4.60;;
15218;SDS011;15623;53.986;11.676;2023-04-24T05:34:59;5.00;;;4.63;;
15218;SDS011;15623;53.986;11.676;2023-04-24T05:37:28;4.70;;;4.40;;
15218;SDS011;15623;53.986;11.676;2023-04-24T05:42:42;4.30;;;4.10;;
15218;SDS011;15623;53.986;11.676;2023-04-24T05:45:20;3.95;;;3.65;;
15218;SDS011;15623;53.986;11.676;2023-04-24T05:53:37;3.30;;;3.10;;
15218;SDS011;15623;53.986;11.676;2023-04-24T05:56:06;3.25;;;3.00;;
15218;SDS011;15623;53.986;11.676;2023-04-24T05:58:40;2.63;;;2.42;;
15218;SDS011;15623;53.986;11.676;2023-04-24T06:01:08;2.65;;;2.55;;
15218;SDS011;15623;53.986;11.676;2023-04-24T06:03:44;2.60;;;2.50;;
15218;SDS011;15623;53.986;11.676;2023-04-24T06:06:19;2.30;;;2.20;;
15218;SDS011;15623;53.986;11.676;2023-04-24T06:08:57;2.42;;;2.28;;
15218;SDS011;15623;53.986;11.676;2023-04-24T06:11:28;2.03;;;1.92;;
15218;SDS011;15623;53.986;11.676;2023-04-24T06:13:56;2.30;;;2.15;;
15218;SDS011;15623;53.986;11.676;2023-04-24T06:16:29;2.03;;;1.92;;
15218;SDS011;15623;53.986;11.676;2023-04-24T06:18:59;1.83;;;1.73;;
15218;SDS011;15623;53.986;11.676;2023-04-24T06:21:32;2.00;;;1.90;;
15218;SDS011;15623;53.986;11.676;2023-04-24T06:24:13;1.83;;;1.73;;
15218;SDS011;15623;53.986;11.676;2023-04-24T06:26:47;1.90;;;1.80;;
15218;SDS011;15623;53.986;11.676;2023-04-24T06:31:56;2.00;;;1.90;;
15218;SDS011;15623;53.986;11.676;2023-04-24T06:34:31;1.60;;;1.60;;
15218;SDS011;15623;53.986;11.676;2023-04-24T06:37:03;1.83;;;1.70;;
15218;SDS011;15623;53.986;11.676;2023-04-24T06:39:32;1.70;;;1.60;;
15218;SDS011;15623;53.986;11.676;2023-04-24T06:42:05;1.70;;;1.60;;
15218;SDS011;15623;53.986;11.676;2023-04-24T06:44:34;1.50;;;1.50;;
15218;SDS011;15623;53.986;11.676;2023-04-24T06:47:14;1.77;;;1.50;;
15218;SDS011;15623;53.986;11.676;2023-04-24T06:52:13;1.90;;;1.80;;
15218;SDS011;15623;53.986;11.676;2023-04-24T06:54:45;2.25;;;1.70;;
15218;SDS011;15623;53.986;11.676;2023-04-24T06:57:13;1.80;;;1.58;;
15218;SDS011;15623;53.986;11.676;2023-04-24T06:59:42;1.80;;;1.70;;
15218;SDS011;15623;53.986;11.676;2023-04-24T07:02:17;2.45;;;1.50;;
15218;SDS011;15623;53.986;11.676;2023-04-24T07:04:45;2.28;;;1.50;;
15218;SDS011;15623;53.986;11.676;2023-04-24T07:07:15;1.67;;;1.58;;
15218;SDS011;15623;53.986;11.676;2023-04-24T07:09:50;1.90;;;1.80;;
15218;SDS011;15623;53.986;11.676;2023-04-24T07:12:29;1.60;;;1.50;;
15218;SDS011;15623;53.986;11.676;2023-04-24T07:14:57;1.35;;;1.35;;
15218;SDS011;15623;53.986;11.676;2023-04-24T07:17:25;1.60;;;1.55;;
15218;SDS011;15623;53.986;11.676;2023-04-24T07:19:52;1.48;;;1.35;;
15218;SDS011;15623;53.986;11.676;2023-04-24T07:22:20;1.60;;;1.50;;
15218;SDS011;15623;53.986;11.676;2023-04-24T07:25:02;1.30;;;1.30;;
15218;SDS011;15623;53.986;11.676;2023-04-24T07:27:39;1.30;;;1.30;;
15218;SDS011;15623;53.986;11.676;2023-04-24T07:30:09;1.33;;;1.33;;
15218;SDS011;15623;53.986;11.676;2023-04-24T07:32:45;1.20;;;1.20;;
15218;SDS011;15623;53.986;11.676;2023-04-24T07:35:20;1.20;;;1.20;;
15218;SDS011;15623;53.986;11.676;2023-04-24T07:37:49;1.40;;;1.30;;
15218;SDS011;15623;53.986;11.676;2023-04-24T07:40:19;1.35;;;1.25;;
15218;SDS011;15623;53.986;11.676;2023-04-24T07:42:47;2.45;;;1.23;;
15218;SDS011;15623;53.986;11.676;2023-04-24T07:45:16;1.17;;;1.15;;
15218;SDS011;15623;53.986;11.676;2023-04-24T07:47:48;1.20;;;1.08;;
15218;SDS011;15623;53.986;11.676;2023-04-24T07:50:22;1.15;;;1.15;;
15218;SDS011;15623;53.986;11.676;2023-04-24T07:52:51;1.40;;;1.30;;
15218;SDS011;15623;53.986;11.676;2023-04-24T07:55:23;1.48;;;1.33;;
15218;SDS011;15623;53.986;11.676;2023-04-24T07:57:56;1.30;;;1.30;;
15218;SDS011;15623;53.986;11.676;2023-04-24T08:00:28;1.30;;;1.30;;
15218;SDS011;15623;53.986;11.676;2023-04-24T08:02:56;1.45;;;1.38;;
15218;SDS011;15623;53.986;11.676;2023-04-24T08:05:23;1.60;;;1.30;;
15218;SDS011;15623;53.986;11.676;2023-04-24T08:07:56;1.20;;;1.20;;
15218;SDS011;15623;53.986;11.676;2023-04-24T08:10:25;1.20;;;1.20;;
15218;SDS011;15623;53.986;11.676;2023-04-24T08:12:53;1.35;;;1.27;;
15218;SDS011;15623;53.986;11.676;2023-04-24T08:15:23;1.50;;;1.40;;
15218;SDS011;15623;53.986;11.676;2023-04-24T08:17:52;1.58;;;1.48;;
15218;SDS011;15623;53.986;11.676;2023-04-24T08:20:35;1.20;;;1.20;;
15218;SDS011;15623;53.986;11.676;2023-04-24T08:23:02;1.30;;;1.30;;
15218;SDS011;15623;53.986;11.676;2023-04-24T08:25:34;1.38;;;1.30;;
15218;SDS011;15623;53.986;11.676;2023-04-24T08:28:05;1.45;;;1.40;;
15218;SDS011;15623;53.986;11.676;2023-04-24T08:30:32;1.45;;;1.40;;
15218;SDS011;15623;53.986;11.676;2023-04-24T08:33:08;1.40;;;1.40;;
15218;SDS011;15623;53.986;11.676;2023-04-24T08:35:37;1.50;;;1.50;;
15218;SDS011;15623;53.986;11.676;2023-04-24T08:38:10;1.60;;;1.50;;
15218;SDS011;15623;53.986;11.676;2023-04-24T08:40:39;1.73;;;1.60;;
15218;SDS011;15623;53.986;11.676;2023-04-24T08:43:13;1.50;;;1.40;;
15218;SDS011;15623;53.986;11.676;2023-04-24T08:45:43;1.70;;;1.60;;
15218;SDS011;15623;53.986;11.676;2023-04-24T08:48:22;1.58;;;1.50;;
15218;SDS011;15623;53.986;11.676;2023-04-24T08:50:50;1.50;;;1.40;;
15218;SDS011;15623;53.986;11.676;2023-04-24T08:53:18;1.35;;;1.35;;
15218;SDS011;15623;53.986;11.676;2023-04-24T08:58:26;1.38;;;1.23;;
15218;SDS011;15623;53.986;11.676;2023-04-24T09:00:56;1.73;;;1.40;;
15218;SDS011;15623;53.986;11.676;2023-04-24T09:03:24;1.30;;;1.23;;
15218;SDS011;15623;53.986;11.676;2023-04-24T09:05:52;2.10;;;1.40;;
15218;SDS011;15623;53.986;11.676;2023-04-24T09:08:27;1.50;;;1.40;;
15218;SDS011;15623;53.986;11.676;2023-04-24T09:11:07;1.80;;;1.48;;
15218;SDS011;15623;53.986;11.676;2023-04-24T09:13:38;1.20;;;1.20;;
15218;SDS011;15623;53.986;11.676;2023-04-24T09:16:12;1.40;;;1.40;;
15218;SDS011;15623;53.986;11.676;2023-04-24T09:18:41;1.88;;;1.50;;
15218;SDS011;15623;53.986;11.676;2023-04-24T09:21:11;1.50;;;1.40;;
15218;SDS011;15623;53.986;11.676;2023-04-24T09:24:00;1.70;;;1.60;;
15218;SDS011;15623;53.986;11.676;2023-04-24T09:26:43;1.80;;;1.70;;
15218;SDS011;15623;53.986;11.676;2023-04-24T09:29:15;1.48;;;1.38;;
15218;SDS011;15623;53.986;11.676;2023-04-24T09:34:21;1.42;;;1.35;;
15218;SDS011;15623;53.986;11.676;2023-04-24T09:37:01;1.58;;;1.50;;
15218;SDS011;15623;53.986;11.676;2023-04-24T09:39:28;1.35;;;1.35;;
15218;SDS011;15623;53.986;11.676;2023-04-24T09:44:43;1.40;;;1.30;;
15218;SDS011;15623;53.986;11.676;2023-04-24T09:49:57;1.40;;;1.30;;
15218;SDS011;15623;53.986;11.676;2023-04-24T09:52:31;1.10;;;1.10;;
15218;SDS011;15623;53.986;11.676;2023-04-24T09:55:00;1.17;;;1.17;;
15218;SDS011;15623;53.986;11.676;2023-04-24T09:57:27;1.30;;;1.30;;
15218;SDS011;15623;53.986;11.676;2023-04-24T09:59:57;1.38;;;1.38;;
15218;SDS011;15623;53.986;11.676;2023-04-24T10:02:35;2.47;;;1.20;;
15218;SDS011;15623;53.986;11.676;2023-04-24T10:05:10;1.50;;;1.40;;
15218;SDS011;15623;53.986;11.676;2023-04-24T10:07:46;1.45;;;1.40;;
15218;SDS011;15623;53.986;11.676;2023-04-24T10:10:16;1.20;;;1.20;;
15218;SDS011;15623;53.986;11.676;2023-04-24T10:15:19;1.33;;;1.33;;
15218;SDS011;15623;53.986;11.676;2023-04-24T10:17:55;1.00;;;1.00;;
15218;SDS011;15623;53.986;11.676;2023-04-24T10:20:25;1.20;;;1.20;;
15218;SDS011;15623;53.986;11.676;2023-04-24T10:22:54;1.30;;;1.20;;
15218;SDS011;15623;53.986;11.676;2023-04-24T10:25:24;1.00;;;0.95;;
15218;SDS011;15623;53.986;11.676;2023-04-24T10:27:59;1.10;;;1.10;;
15218;SDS011;15623;53.986;11.676;2023-04-24T10:30:31;1.48;;;1.00;;
15218;SDS011;15623;53.986;11.676;2023-04-24T10:33:01;1.00;;;1.00;;
15218;SDS011;15623;53.986;11.676;2023-04-24T10:35:42;1.00;;;1.00;;
15218;SDS011;15623;53.986;11.676;2023-04-24T10:38:18;1.10;;;1.10;;
15218;SDS011;15623;53.986;11.676;2023-04-24T10:40:57;1.65;;;1.20;;
15218;SDS011;15623;53.986;11.676;2023-04-24T10:43:24;1.95;;;1.23;;
15218;SDS011;15623;53.986;11.676;2023-04-24T10:46:04;1.17;;;1.17;;
15218;SDS011;15623;53.986;11.676;2023-04-24T10:48:32;1.30;;;1.30;;
15218;SDS011;15623;53.986;11.676;2023-04-24T10:51:01;1.48;;;1.33;;
15218;SDS011;15623;53.986;11.676;2023-04-24T10:53:31;1.63;;;1.10;;
15218;SDS011;15623;53.986;11.676;2023-04-24T10:56:02;1.73;;;1.15;;
15218;SDS011;15623;53.986;11.676;2023-04-24T10:58:38;1.17;;;1.08;;
15218;SDS011;15623;53.986;11.676;2023-04-24T11:01:11;1.00;;;1.00;;
15218;SDS011;15623;53.986;11.676;2023-04-24T11:03:57;1.00;;;1.00;;
15218;SDS011;15623;53.986;11.676;2023-04-24T11:06:28;1.13;;;1.13;;
15218;SDS011;15623;53.986;11.676;2023-04-24T11:09:01;1.10;;;1.10;;
15218;SDS011;15623;53.986;11.676;2023-04-24T11:11:31;1.00;;;1.00;;
15218;SDS011;15623;53.986;11.676;2023-04-24T11:14:14;1.25;;;1.15;;
15218;SDS011;15623;53.986;11.676;2023-04-24T11:16:44;1.30;;;1.20;;
15218;SDS011;15623;53.986;11.676;2023-04-24T11:19:22;1.10;;;1.10;;
15218;SDS011;15623;53.986;11.676;2023-04-24T11:21:54;1.40;;;1.30;;
15218;SDS011;15623;53.986;11.676;2023-04-24T11:24:26;1.42;;;1.33;;
15218;SDS011;15623;53.986;11.676;2023-04-24T11:26:55;1.63;;;1.42;;
15218;SDS011;15623;53.986;11.676;2023-04-24T11:29:23;2.58;;;1.20;;
15218;SDS011;15623;53.986;11.676;2023-04-24T11:34:53;1.23;;;1.13;;
15218;SDS011;15623;53.986;11.676;2023-04-24T11:37:26;1.40;;;1.40;;
15218;SDS011;15623;53.986;11.676;2023-04-24T11:39:54;1.20;;;1.20;;
15218;SDS011;15623;53.986;11.676;2023-04-24T11:42:25;1.30;;;1.30;;
15218;SDS011;15623;53.986;11.676;2023-04-24T11:50:17;1.27;;;1.27;;
15218;SDS011;15623;53.986;11.676;2023-04-24T11:52:45;1.35;;;1.35;;
15218;SDS011;15623;53.986;11.676;2023-04-24T11:55:24;1.50;;;1.40;;
15218;SDS011;15623;53.986;11.676;2023-04-24T11:57:53;1.40;;;1.40;;
15218;SDS011;15623;53.986;11.676;2023-04-24T12:00:35;1.63;;;1.50;;
15218;SDS011;15623;53.986;11.676;2023-04-24T12:03:04;1.30;;;1.30;;
15218;SDS011;15623;53.986;11.676;2023-04-24T12:05:34;1.58;;;1.45;;
15218;SDS011;15623;53.986;11.676;2023-04-24T12:08:03;1.77;;;1.67;;
15218;SDS011;15623;53.986;11.676;2023-04-24T12:10:33;1.80;;;1.70;;
15218;SDS011;15623;53.986;11.676;2023-04-24T12:13:05;1.85;;;1.50;;
15218;SDS011;15623;53.986;11.676;2023-04-24T12:15:43;1.50;;;1.50;;
15218;SDS011;15623;53.986;11.676;2023-04-24T12:18:12;1.70;;;1.60;;
15218;SDS011;15623;53.986;11.676;2023-04-24T12:20:50;1.50;;;1.40;;
15218;SDS011;15623;53.986;11.676;2023-04-24T12:25:59;1.38;;;1.33;;
15218;SDS011;15623;53.986;11.676;2023-04-24T12:28:34;1.50;;;1.40;;
15218;SDS011;15623;53.986;11.676;2023-04-24T12:31:02;1.75;;;1.65;;
15218;SDS011;15623;53.986;11.676;2023-04-24T12:33:32;1.92;;;1.75;;
15218;SDS011;15623;53.986;11.676;2023-04-24T12:36:03;2.00;;;1.90;;
15218;SDS011;15623;53.986;11.676;2023-04-24T12:38:31;2.10;;;2.00;;
15218;SDS011;15623;53.986;11.676;2023-04-24T12:41:10;2.28;;;2.17;;
15218;SDS011;15623;53.986;11.676;2023-04-24T12:43:50;2.20;;;2.10;;
15218;SDS011;15623;53.986;11.676;2023-04-24T12:46:23;2.20;;;2.10;;
15218;SDS011;15623;53.986;11.676;2023-04-24T12:48:51;2.63;;;2.20;;
15218;SDS011;15623;53.986;11.676;2023-04-24T12:51:21;1.92;;;1.80;;
15218;SDS011;15623;53.986;11.676;2023-04-24T12:53:58;2.25;;;2.15;;
15218;SDS011;15623;53.986;11.676;2023-04-24T12:56:33;2.95;;;2.40;;
15218;SDS011;15623;53.986;11.676;2023-04-24T12:59:06;2.45;;;2.30;;
15218;SDS011;15623;53.986;11.676;2023-04-24T13:01:33;2.25;;;2.15;;
15218;SDS011;15623;53.986;11.676;2023-04-24T13:04:03;2.90;;;2.70;;
15218;SDS011;15623;53.986;11.676;2023-04-24T13:06:32;2.78;;;2.58;;
15218;SDS011;15623;53.986;11.676;2023-04-24T13:09:07;2.63;;;2.53;;
15218;SDS011;15623;53.986;11.676;2023-04-24T13:11:35;3.13;;;2.90;;
15218;SDS011;15623;53.986;11.676;2023-04-24T13:14:04;3.65;;;3.45;;
15218;SDS011;15623;53.986;11.676;2023-04-24T13:16:41;5.47;;;3.33;;
15218;SDS011;15623;53.986;11.676;2023-04-24T13:19:17;3.03;;;2.85;;
15218;SDS011;15623;53.986;11.676;2023-04-24T13:21:49;3.50;;;3.05;;
15218;SDS011;15623;53.986;11.676;2023-04-24T13:24:18;3.03;;;2.92;;
15218;SDS011;15623;53.986;11.676;2023-04-24T13:26:52;3.72;;;3.50;;
15218;SDS011;15623;53.986;11.676;2023-04-24T13:32:08;4.03;;;3.80;;
15218;SDS011;15623;53.986;11.676;2023-04-24T13:34:53;4.38;;;4.18;;
15218;SDS011;15623;53.986;11.676;2023-04-24T13:37:26;4.10;;;3.80;;
15218;SDS011;15623;53.986;11.676;2023-04-24T13:40:00;4.28;;;3.88;;
15218;SDS011;15623;53.986;11.676;2023-04-24T13:42:28;4.20;;;3.90;;
15218;SDS011;15623;53.986;11.676;2023-04-24T13:45:02;4.65;;;4.35;;
15218;SDS011;15623;53.986;11.676;2023-04-24T13:47:32;4.57;;;4.28;;
15218;SDS011;15623;53.986;11.676;2023-04-24T13:50:02;4.00;;;3.80;;
15218;SDS011;15623;53.986;11.676;2023-04-24T13:52:39;5.07;;;4.68;;
15218;SDS011;15623;53.986;11.676;2023-04-24T13:55:07;4.05;;;3.75;;
15218;SDS011;15623;53.986;11.676;2023-04-24T13:57:35;3.72;;;3.53;;
15218;SDS011;15623;53.986;11.676;2023-04-24T14:00:03;3.92;;;3.72;;
15218;SDS011;15623;53.986;11.676;2023-04-24T14:02:39;3.90;;;3.58;;
15218;SDS011;15623;53.986;11.676;2023-04-24T14:05:06;3.70;;;3.50;;
15218;SDS011;15623;53.986;11.676;2023-04-24T14:07:35;3.88;;;3.63;;
15218;SDS011;15623;53.986;11.676;2023-04-24T14:10:15;4.15;;;3.85;;
15218;SDS011;15623;53.986;11.676;2023-04-24T14:12:43;4.22;;;3.90;;
15218;SDS011;15623;53.986;11.676;2023-04-24T14:15:13;4.45;;;4.15;;
15218;SDS011;15623;53.986;11.676;2023-04-24T14:17:43;4.63;;;4.35;;
15218;SDS011;15623;53.986;11.676;2023-04-24T14:20:11;3.80;;;3.60;;
15218;SDS011;15623;53.986;11.676;2023-04-24T14:22:41;4.07;;;3.78;;
15218;SDS011;15623;53.986;11.676;2023-04-24T14:25:10;3.70;;;3.50;;
15218;SDS011;15623;53.986;11.676;2023-04-24T14:27:38;3.58;;;3.38;;
15218;SDS011;15623;53.986;11.676;2023-04-24T14:30:08;4.30;;;4.00;;
15218;SDS011;15623;53.986;11.676;2023-04-24T14:32:37;3.88;;;3.58;;
15218;SDS011;15623;53.986;11.676;2023-04-24T14:35:05;3.70;;;3.40;;
15218;SDS011;15623;53.986;11.676;2023-04-24T14:37:34;3.83;;;3.55;;
15218;SDS011;15623;53.986;11.676;2023-04-24T14:40:11;3.80;;;3.50;;
15218;SDS011;15623;53.986;11.676;2023-04-24T14:42:38;3.60;;;3.40;;
15218;SDS011;15623;53.986;11.676;2023-04-24T14:45:13;3.30;;;3.10;;
15218;SDS011;15623;53.986;11.676;2023-04-24T14:47:50;3.60;;;3.40;;
15218;SDS011;15623;53.986;11.676;2023-04-24T14:50:26;3.28;;;3.00;;
15218;SDS011;15623;53.986;11.676;2023-04-24T14:52:55;3.00;;;2.70;;
15218;SDS011;15623;53.986;11.676;2023-04-24T14:55:40;3.40;;;2.30;;
15218;SDS011;15623;53.986;11.676;2023-04-24T14:58:12;2.53;;;2.42;;
15218;SDS011;15623;53.986;11.676;2023-04-24T15:00:39;3.00;;;2.85;;
15218;SDS011;15623;53.986;11.676;2023-04-24T15:03:11;3.42;;;3.25;;
15218;SDS011;15623;53.986;11.676;2023-04-24T15:08:28;2.67;;;2.47;;
15218;SDS011;15623;53.986;11.676;2023-04-24T15:10:59;2.65;;;2.55;;
15218;SDS011;15623;53.986;11.676;2023-04-24T15:13:29;3.25;;;3.05;;
15218;SDS011;15623;53.986;11.676;2023-04-24T15:15:57;2.90;;;2.63;;
15218;SDS011;15623;53.986;11.676;2023-04-24T15:18:28;3.08;;;2.67;;
15218;SDS011;15623;53.986;11.676;2023-04-24T15:21:02;3.13;;;3.00;;
15218;SDS011;15623;53.986;11.676;2023-04-24T15:23:30;4.40;;;3.33;;
15218;SDS011;15623;53.986;11.676;2023-04-24T15:31:34;3.63;;;3.22;;
15218;SDS011;15623;53.986;11.676;2023-04-24T15:34:09;3.50;;;3.20;;
15218;SDS011;15623;53.986;11.676;2023-04-24T15:36:36;3.50;;;3.22;;
15218;SDS011;15623;53.986;11.676;2023-04-24T15:39:04;3.35;;;3.05;;
15218;SDS011;15623;53.986;11.676;2023-04-24T15:41:40;3.30;;;3.20;;
15218;SDS011;15623;53.986;11.676;2023-04-24T15:46:54;3.60;;;3.30;;
15218;SDS011;15623;53.986;11.676;2023-04-24T15:49:28;3.30;;;3.20;;
15218;SDS011;15623;53.986;11.676;2023-04-24T15:52:02;3.20;;;3.10;;
15218;SDS011;15623;53.986;11.676;2023-04-24T15:54:31;2.95;;;2.80;;
15218;SDS011;15623;53.986;11.676;2023-04-24T15:57:00;3.15;;;2.97;;
15218;SDS011;15623;53.986;11.676;2023-04-24T15:59:30;3.58;;;3.38;;
15218;SDS011;15623;53.986;11.676;2023-04-24T16:02:16;3.08;;;2.92;;
15218;SDS011;15623;53.986;11.676;2023-04-24T16:04:46;2.97;;;2.80;;
15218;SDS011;15623;53.986;11.676;2023-04-24T16:07:14;3.10;;;3.00;;
15218;SDS011;15623;53.986;11.676;2023-04-24T16:09:45;2.97;;;2.78;;
15218;SDS011;15623;53.986;11.676;2023-04-24T16:12:12;3.22;;;2.70;;
15218;SDS011;15623;53.986;11.676;2023-04-24T16:14:42;3.10;;;2.90;;
15218;SDS011;15623;53.986;11.676;2023-04-24T16:17:23;2.40;;;2.30;;
15218;SDS011;15623;53.986;11.676;2023-04-24T16:22:45;1.63;;;1.52;;
15218;SDS011;15623;53.986;11.676;2023-04-24T16:25:16;1.33;;;1.23;;
15218;SDS011;15623;53.986;11.676;2023-04-24T16:27:46;1.50;;;1.40;;
15218;SDS011;15623;53.986;11.676;2023-04-24T16:30:17;1.50;;;1.40;;
15218;SDS011;15623;53.986;11.676;2023-04-24T16:35:36;1.80;;;1.70;;
15218;SDS011;15623;53.986;11.676;2023-04-24T16:38:10;1.80;;;1.80;;
15218;SDS011;15623;53.986;11.676;2023-04-24T16:40:38;2.03;;;1.92;;
15218;SDS011;15623;53.986;11.676;2023-04-24T16:43:11;2.55;;;2.15;;
15218;SDS011;15623;53.986;11.676;2023-04-24T16:45:46;2.75;;;2.53;;
15218;SDS011;15623;53.986;11.676;2023-04-24T16:48:15;2.67;;;2.58;;
15218;SDS011;15623;53.986;11.676;2023-04-24T16:50:50;3.13;;;2.92;;
15218;SDS011;15623;53.986;11.676;2023-04-24T16:53:32;3.20;;;2.97;;
15218;SDS011;15623;53.986;11.676;2023-04-24T16:56:01;2.80;;;2.60;;
15218;SDS011;15623;53.986;11.676;2023-04-24T16:58:29;2.90;;;2.80;;
15218;SDS011;15623;53.986;11.676;2023-04-24T17:01:03;2.90;;;2.80;;
15218;SDS011;15623;53.986;11.676;2023-04-24T17:06:05;3.47;;;3.17;;
15218;SDS011;15623;53.986;11.676;2023-04-24T17:08:35;2.90;;;2.80;;
15218;SDS011;15623;53.986;11.676;2023-04-24T17:11:13;3.10;;;2.90;;
15218;SDS011;15623;53.986;11.676;2023-04-24T17:13:40;3.10;;;2.80;;
15218;SDS011;15623;53.986;11.676;2023-04-24T17:16:22;3.07;;;2.97;;
15218;SDS011;15623;53.986;11.676;2023-04-24T17:18:57;2.60;;;2.50;;
15218;SDS011;15623;53.986;11.676;2023-04-24T17:21:37;2.57;;;2.47;;
15218;SDS011;15623;53.986;11.676;2023-04-24T17:24:12;2.60;;;2.50;;
15218;SDS011;15623;53.986;11.676;2023-04-24T17:26:47;2.20;;;2.10;;
15218;SDS011;15623;53.986;11.676;2023-04-24T17:29:24;2.20;;;2.10;;
15218;SDS011;15623;53.986;11.676;2023-04-24T17:32:05;2.25;;;2.05;;
15218;SDS011;15623;53.986;11.676;2023-04-24T17:34:34;2.20;;;2.10;;
15218;SDS011;15623;53.986;11.676;2023-04-24T17:37:19;3.63;;;2.50;;
15218;SDS011;15623;53.986;11.676;2023-04-24T17:39:47;2.40;;;2.30;;
15218;SDS011;15623;53.986;11.676;2023-04-24T17:44:49;2.30;;;2.20;;
15218;SDS011;15623;53.986;11.676;2023-04-24T17:47:27;2.20;;;2.10;;
15218;SDS011;15623;53.986;11.676;2023-04-24T17:50:02;2.17;;;1.90;;
15218;SDS011;15623;53.986;11.676;2023-04-24T17:55:20;3.23;;;3.03;;
15218;SDS011;15623;53.986;11.676;2023-04-24T17:57:53;3.30;;;3.10;;
15218;SDS011;15623;53.986;11.676;2023-04-24T18:00:32;3.40;;;3.20;;
15218;SDS011;15623;53.986;11.676;2023-04-24T18:03:00;3.43;;;3.23;;
15218;SDS011;15623;53.986;11.676;2023-04-24T18:05:41;3.40;;;3.20;;
15218;SDS011;15623;53.986;11.676;2023-04-24T18:08:11;3.50;;;2.80;;
15218;SDS011;15623;53.986;11.676;2023-04-24T18:10:42;2.73;;;2.63;;
15218;SDS011;15623;53.986;11.676;2023-04-24T18:13:10;2.77;;;2.67;;
15218;SDS011;15623;53.986;11.676;2023-04-24T18:15:43;2.80;;;2.70;;
15218;SDS011;15623;53.986;11.676;2023-04-24T18:18:11;3.03;;;2.83;;
15218;SDS011;15623;53.986;11.676;2023-04-24T18:20:45;3.00;;;2.80;;
15218;SDS011;15623;53.986;11.676;2023-04-24T18:23:20;2.83;;;2.63;;
15218;SDS011;15623;53.986;11.676;2023-04-24T18:25:53;3.03;;;2.83;;
15218;SDS011;15623;53.986;11.676;2023-04-24T18:30:56;4.23;;;3.83;;
15218;SDS011;15623;53.986;11.676;2023-04-24T18:33:49;4.27;;;3.97;;